Terminal Aerodrome Forecast
Issued by NWS St Louis, MO

Home | Current Version | Previous Version | Graphics & Text | Print | Product List | Glossary On
Versions: 1 2 3 4 5 6 7 8 9 10 11 12 13 14 15 16 17 18 19 20 21 22 23 24 25 26 27 28 29 30
000
FTUS43 KLSX 261700
TAFSTL
TAF
KSTL 261737Z 2618/2724 14009KT 1SM -SN BR OVC015
     FM262000 16007KT 5SM -SNRA BR OVC015
     FM270000 29007KT 6SM BR VCSH OVC015
     FM270600 32011KT P6SM OVC015
     FM271400 31012KT P6SM BKN020
     FM271800 31010KT P6SM SCT025 BKN250=

USA.gov is the U.S. government's official web portal to all federal, state and local government web resources and services.